Time;durP1;ratioP1;P1;durP2;ratioP2;P2;SDS_P1;SDS_P2;PMS_P1;PMS_P2;Temp;Humidity;BMP_temperature;BMP_pressure;BME280_temperature;BME280_humidity;BME280_pressure;Samples;Min_cycle;Max_cycle;Signal;HPM_P1;HPM_P2
2022/10/20 15:47:28;;;;;;;;;;;16.00;99.90;;;;;;5147558;27;19951;-68
2022/10/20 15:49:53;;;;;;;;;;;15.40;99.90;;;;;;5131432;28;20007;-70
2022/10/20 15:52:20;;;;;;;;;;;15.10;99.90;;;;;;5131347;27;19908;-69
2022/10/20 15:54:45;;;;;;;;;;;15.00;99.90;;;;;;5130726;27;19908;-69
2022/10/20 15:57:11;;;;;;;;;;;14.80;99.90;;;;;;5131140;27;19918;-68
2022/10/20 15:59:37;;;;;;;;;;;;;;;;;;5131373;28;20257;-69
2022/10/20 16:02:05;;;;;;;;;;;14.60;99.90;;;;;;5129641;28;20253;-69
2022/10/20 16:04:31;;;;;;;;;;;14.40;99.90;;;;;;5131215;27;20380;-71
2022/10/20 16:06:56;;;;;;;;;;;14.40;99.90;;;;;;5129940;28;19963;-69
2022/10/20 16:09:22;;;;;;;;;;;14.30;99.90;;;;;;5131115;27;19958;-69
2022/10/20 16:11:48;;;;;;;;;;;;;;;;;;5131011;27;19953;-67
2022/10/20 16:14:14;;;;;;;;;;;14.10;99.90;;;;;;5129624;28;19908;-64
2022/10/20 16:16:40;;;;;;;;;;;14.00;99.90;;;;;;5129143;27;20394;-65
2022/10/20 16:19:06;;;;;;;;;;;14.00;99.90;;;;;;5130932;27;19907;-64
2022/10/20 16:21:32;;;;;;;;;;;13.90;99.90;;;;;;5130428;27;20310;-64
2022/10/20 16:23:59;;;;;;;;;;;13.90;99.90;;;;;;5129675;28;19914;-65
2022/10/20 16:26:25;;;;;;;;;;;13.80;99.90;;;;;;5130962;27;19908;-65
2022/10/20 16:28:51;;;;;;;;;;;13.60;99.90;;;;;;5128861;28;20316;-67
2022/10/20 16:31:16;;;;;;;;;;;13.60;99.90;;;;;;5130525;27;19914;-66
2022/10/20 16:33:42;;;;;;;;;;;13.50;99.90;;;;;;5129378;28;19943;-65
2022/10/20 16:36:08;;;;;;;;;;;13.50;99.90;;;;;;5129255;28;20280;-68
2022/10/20 16:38:34;;;;;;;;;;;13.40;99.90;;;;;;5130574;27;19915;-64
2022/10/20 16:41:00;;;;;;;;;;;;;;;;;;5130207;27;20398;-67
2022/10/20 16:43:27;;;;;;;;;;;13.30;99.90;;;;;;5130320;28;19939;-68
2022/10/20 16:45:52;;;;;;;;;;;13.20;99.90;;;;;;5130134;27;19926;-64
2022/10/20 16:48:18;;;;;;;;;;;;;;;;;;5117558;27;19998;-70
2022/10/20 16:50:44;;;;;;;;;;;13.10;99.90;;;;;;5115300;28;19933;-69
2022/10/20 16:53:10;;;;;;;;;;;13.00;99.90;;;;;;5116400;28;19912;-68
2022/10/20 16:55:35;;;;;;;;;;;13.00;99.90;;;;;;5115169;28;19969;-71
2022/10/20 16:58:01;;;;;;;;;;;13.00;99.90;;;;;;5116701;28;19962;-68
2022/10/20 17:00:27;;;;;;;;;;;12.90;99.90;;;;;;5114296;28;19915;-67
2022/10/20 17:02:55;;;;;;;;;;;12.90;99.90;;;;;;5108683;28;19915;-66
2022/10/20 17:05:25;;;;;;;;;;;12.80;99.90;;;;;;5094994;28;19908;-67
2022/10/20 17:07:51;;;;;;;;;;;12.80;99.90;;;;;;5096100;28;20380;-67
2022/10/20 17:10:16;;;;;;;;;;;12.70;99.90;;;;;;5095743;28;20014;-67
2022/10/20 17:12:45;;;;;;;;;;;12.70;99.90;;;;;;5095310;28;20301;-68
2022/10/20 17:15:10;;;;;;;;;;;12.70;99.90;;;;;;5095523;28;19916;-66
2022/10/20 17:17:36;;;;;;;;;;;;;;;;;;5095390;28;19912;-67
2022/10/20 17:20:02;;;;;;;;;;;12.60;99.90;;;;;;5095223;28;19977;-67
2022/10/20 17:22:28;;;;;;;;;;;12.60;99.90;;;;;;5095523;28;19912;-67
2022/10/20 17:24:53;;;;;;;;;;;12.60;99.90;;;;;;5095347;28;19916;-66
2022/10/20 17:27:19;;;;;;;;;;;12.60;99.90;;;;;;5095413;28;20249;-68
2022/10/20 17:29:45;;;;;;;;;;;12.50;99.90;;;;;;5094210;28;20364;-68
2022/10/20 17:32:11;;;;;;;;;;;12.50;99.90;;;;;;5093950;28;19912;-67
2022/10/20 17:34:36;;;;;;;;;;;12.50;99.90;;;;;;5106846;28;20370;-68
2022/10/20 17:37:02;;;;;;;;;;;;;;;;;;5105389;27;19923;-68
2022/10/20 17:39:28;;;;;;;;;;;;;;;;;;5093384;28;20448;-69
2022/10/20 17:41:54;;;;;;;;;;;;;;;;;;5095256;28;19938;-67
2022/10/20 17:44:20;;;;;;;;;;;;;;;;;;5095026;28;19912;-67
2022/10/20 17:46:46;;;;;;;;;;;;;;;;;;5109047;28;19927;-66
2022/10/20 17:49:12;;;;;;;;;;;;;;;;;;5115234;28;19908;-67
2022/10/20 17:51:38;;;;;;;;;;;;;;;;;;5094591;28;20262;-67
2022/10/20 17:54:04;;;;;;;;;;;;;;;;;;5094746;28;20683;-67
2022/10/20 17:56:30;;;;;;;;;;;;;;;;;;5093341;28;19926;-67
2022/10/20 17:58:56;;;;;;;;;;;;;;;;;;5114180;28;20241;-68
2022/10/20 18:01:22;;;;;;;;;;;;;;;;;;5114963;28;19957;-69
2022/10/20 18:03:48;;;;;;;;;;;;;;;;;;5113553;28;19915;-70
2022/10/20 18:06:14;;;;;;;;;;;;;;;;;;5114677;28;20283;-68
2022/10/20 18:08:40;;;;;;;;;;;;;;;;;;5099715;28;20028;-68
2022/10/20 18:11:06;;;;;;;;;;;;;;;;;;5094477;28;20029;-67
2022/10/20 18:13:32;;;;;;;;;;;;;;;;;;5094304;28;20357;-66
2022/10/20 18:15:58;;;;;;;;;;;;;;;;;;5094333;28;20268;-67
2022/10/20 18:18:24;;;;;;;;;;;11.70;99.90;;;;;;5098214;28;19930;-68
2022/10/20 18:20:55;;;;;;;;;;;11.70;99.90;;;;;;5114344;28;19908;-67
2022/10/20 18:23:21;;;;;;;;;;;11.40;99.90;;;;;;5113035;28;19923;-66
2022/10/20 18:25:47;;;;;;;;;;;11.40;99.90;;;;;;5113711;28;19908;-65
2022/10/20 18:28:15;;;;;;;;;;;;;;;;;;5114207;28;19915;-67
2022/10/20 18:30:44;;;;;;;;;;;11.40;99.90;;;;;;5113096;28;19911;-67
2022/10/20 18:33:09;;;;;;;;;;;11.30;99.90;;;;;;5112915;28;20280;-65
2022/10/20 18:35:36;;;;;;;;;;;11.20;99.90;;;;;;5112175;28;19920;-68
2022/10/20 18:38:02;;;;;;;;;;;11.10;99.90;;;;;;5114031;28;20297;-68
2022/10/20 18:40:27;;;;;;;;;;;11.00;99.90;;;;;;5112478;28;19954;-65
2022/10/20 18:42:53;;;;;;;;;;;11.00;99.90;;;;;;5113731;28;19908;-68
2022/10/20 18:45:18;;;;;;;;;;;11.00;99.90;;;;;;5112368;28;19908;-66
2022/10/20 18:47:44;;;;;;;;;;;10.90;99.90;;;;;;5112658;28;19915;-65
2022/10/20 18:50:10;;;;;;;;;;;10.90;99.90;;;;;;5114466;28;19915;-65
2022/10/20 18:52:35;;;;;;;;;;;10.90;99.90;;;;;;5114464;28;20237;-66
2022/10/20 18:55:02;;;;;;;;;;;10.90;99.90;;;;;;5114301;28;20403;-67
2022/10/20 18:57:31;;;;;;;;;;;10.90;99.90;;;;;;5114341;28;19908;-70
2022/10/20 18:59:57;;;;;;;;;;;10.90;99.90;;;;;;5113018;28;19908;-68
2022/10/20 19:02:25;;;;;;;;;;;10.90;99.90;;;;;;5112972;28;20001;-67
2022/10/20 19:04:51;;;;;;;;;;;10.90;99.90;;;;;;5114278;28;19912;-65
2022/10/20 19:07:16;;;;;;;;;;;10.90;99.90;;;;;;5112770;28;19907;-67
2022/10/20 19:09:42;;;;;;;;;;;10.90;99.90;;;;;;5113896;28;19964;-67
2022/10/20 19:12:08;;;;;;;;;;;10.90;99.90;;;;;;5114145;28;20006;-66
2022/10/20 19:14:33;;;;;;;;;;;10.80;99.90;;;;;;5113781;28;19930;-66
2022/10/20 19:16:59;;;;;;;;;;;10.80;99.90;;;;;;5101136;28;19920;-71
2022/10/20 19:19:24;;;;;;;;;;;10.80;99.90;;;;;;5109923;28;19912;-71
2022/10/20 19:21:50;;;;;;;;;;;10.80;99.90;;;;;;5113680;28;20284;-71
2022/10/20 19:24:20;;;;;;;;;;;10.80;99.90;;;;;;5113894;28;20356;-69
2022/10/20 19:26:47;;;;;;;;;;;10.80;99.90;;;;;;5113922;28;19908;-67
2022/10/20 19:29:14;;;;;;;;;;;10.80;99.90;;;;;;5112518;28;19907;-68
2022/10/20 19:31:40;;;;;;;;;;;10.80;99.90;;;;;;5113974;28;20318;-69
2022/10/20 19:34:08;;;;;;;;;;;10.80;99.90;;;;;;5113975;28;19911;-70
2022/10/20 19:36:34;;;;;;;;;;;10.80;99.90;;;;;;5113773;28;19915;-71
2022/10/20 19:39:00;;;;;;;;;;;10.80;99.90;;;;;;5112600;28;19908;-70
2022/10/20 19:41:26;;;;;;;;;;;10.80;99.90;;;;;;5112552;28;19919;-68
2022/10/20 19:43:52;;;;;;;;;;;10.80;99.90;;;;;;5113782;28;19908;-70
2022/10/20 19:46:18;;;;;;;;;;;10.80;99.90;;;;;;5111984;28;19931;-70
2022/10/20 19:48:45;;;;;;;;;;;10.80;99.90;;;;;;5113806;28;20373;-70
2022/10/20 19:51:10;;;;;;;;;;;10.80;99.90;;;;;;5106817;28;19920;-71
2022/10/20 19:53:36;;;;;;;;;;;10.80;99.90;;;;;;5099998;28;20066;-70
2022/10/20 19:56:02;;;;;;;;;;;10.70;99.90;;;;;;5102162;28;19916;-70
2022/10/20 19:58:28;;;;;;;;;;;10.70;99.90;;;;;;5103020;28;19919;-71
2022/10/20 20:00:55;;;;;;;;;;;10.60;99.90;;;;;;5109051;28;19908;-69
2022/10/20 20:03:21;;;;;;;;;;;10.60;99.90;;;;;;5113600;28;20349;-71
2022/10/20 20:05:47;;;;;;;;;;;10.50;99.90;;;;;;5113717;28;20002;-69
2022/10/20 20:08:13;;;;;;;;;;;10.50;99.90;;;;;;5102527;28;20376;-71
2022/10/20 20:10:39;;;;;;;;;;;10.40;99.90;;;;;;5102457;28;19908;-70
2022/10/20 20:13:04;;;;;;;;;;;10.40;99.90;;;;;;5106155;28;19912;-69
